createdAt,value
2022-09-07T00:01:49.767Z,100.00
2022-09-07T00:03:56.982Z,100.00
2022-09-07T00:06:07.753Z,100.00
2022-09-07T00:08:12.100Z,100.00
2022-09-07T00:10:16.231Z,100.00
2022-09-07T00:12:20.002Z,100.00
2022-09-07T00:14:23.483Z,100.00
2022-09-07T00:16:29.736Z,100.00
2022-09-07T00:18:33.355Z,100.00
2022-09-07T00:20:37.334Z,100.00
2022-09-07T00:22:42.840Z,100.00
2022-09-07T00:24:46.493Z,100.00
2022-09-07T00:26:50.225Z,100.00
2022-09-07T00:28:57.562Z,100.00
2022-09-07T00:31:01.264Z,100.00
2022-09-07T00:33:04.958Z,100.00
2022-09-07T00:35:09.073Z,100.00
2022-09-07T00:37:12.916Z,100.00
2022-09-07T00:39:17.898Z,100.00
2022-09-07T00:41:23.169Z,100.00
2022-09-07T00:43:32.700Z,100.00
2022-09-07T00:45:36.826Z,100.00
2022-09-07T00:47:48.878Z,100.00
2022-09-07T00:49:57.189Z,100.00
2022-09-07T00:52:05.292Z,100.00
2022-09-07T00:54:12.297Z,100.00
2022-09-07T00:56:17.666Z,100.00
2022-09-07T00:58:23.265Z,100.00
2022-09-07T01:00:28.521Z,100.00
2022-09-07T01:02:32.619Z,100.00
2022-09-07T01:04:36.444Z,100.00
2022-09-07T01:06:42.817Z,100.00
2022-09-07T01:08:49.934Z,100.00
2022-09-07T01:10:53.571Z,100.00
2022-09-07T01:12:58.665Z,100.00
2022-09-07T01:15:02.563Z,100.00
2022-09-07T01:17:14.507Z,100.00
2022-09-07T01:19:53.593Z,100.00
2022-09-07T01:22:30.846Z,100.00
2022-09-07T01:24:43.010Z,100.00
2022-09-07T01:27:24.570Z,100.00
2022-09-07T01:29:32.774Z,100.00
2022-09-07T01:31:43.679Z,100.00
2022-09-07T01:34:00.330Z,100.00
2022-09-07T01:36:16.364Z,100.00
2022-09-07T01:38:31.623Z,100.00
2022-09-07T01:40:45.016Z,100.00
2022-09-07T01:42:52.390Z,100.00
2022-09-07T01:45:01.327Z,100.00
2022-09-07T01:47:10.720Z,100.00
2022-09-07T01:49:21.913Z,100.00
2022-09-07T01:51:31.945Z,100.00
2022-09-07T01:53:40.710Z,100.00
2022-09-07T01:55:48.057Z,100.00
2022-09-07T01:57:56.559Z,100.00
2022-09-07T02:00:07.502Z,100.00
2022-09-07T02:02:19.367Z,100.00
2022-09-07T02:04:26.889Z,100.00
2022-09-07T02:06:38.878Z,100.00
2022-09-07T02:08:47.568Z,100.00
2022-09-07T02:10:55.568Z,100.00
2022-09-07T02:13:06.930Z,100.00
2022-09-07T02:15:17.126Z,100.00
2022-09-07T02:17:24.157Z,100.00
2022-09-07T02:19:32.938Z,100.00
2022-09-07T02:21:40.688Z,100.00
2022-09-07T02:23:50.349Z,100.00
2022-09-07T02:26:00.418Z,100.00
2022-09-07T02:28:09.832Z,100.00
2022-09-07T02:30:15.139Z,100.00
2022-09-07T02:32:18.377Z,100.00
2022-09-07T02:34:21.876Z,100.00
2022-09-07T02:36:29.744Z,100.00
2022-09-07T02:38:33.347Z,100.00
2022-09-07T02:40:37.323Z,100.00
2022-09-07T02:42:40.951Z,100.00
2022-09-07T02:44:45.747Z,100.00
2022-09-07T02:47:05.997Z,100.00
2022-09-07T02:49:17.821Z,100.00
2022-09-07T02:51:33.075Z,100.00
2022-09-07T02:53:57.785Z,100.00
2022-09-07T02:56:12.924Z,100.00
2022-09-07T02:58:30.884Z,100.00
2022-09-07T03:00:40.944Z,100.00
2022-09-07T03:02:53.282Z,100.00
2022-09-07T03:05:03.855Z,100.00
2022-09-07T03:07:12.328Z,100.00
2022-09-07T03:09:21.078Z,100.00
2022-09-07T03:11:24.638Z,100.00
2022-09-07T03:13:30.084Z,100.00
2022-09-07T03:15:33.372Z,100.00
2022-09-07T03:17:36.815Z,100.00
2022-09-07T03:19:41.566Z,100.00
2022-09-07T03:21:45.090Z,100.00
2022-09-07T03:23:51.741Z,100.00
2022-09-07T03:25:55.343Z,100.00
2022-09-07T03:27:58.654Z,100.00
2022-09-07T03:30:02.487Z,100.00
2022-09-07T03:32:05.872Z,100.00
2022-09-07T03:34:09.588Z,100.00
2022-09-07T03:36:14.700Z,100.00
2022-09-07T03:38:18.450Z,100.00
2022-09-07T03:40:22.050Z,100.00
2022-09-07T03:42:25.950Z,100.00
2022-09-07T03:44:30.262Z,100.00
2022-09-07T03:46:34.736Z,100.00
2022-09-07T03:48:40.026Z,100.00
2022-09-07T03:50:43.720Z,100.00
2022-09-07T03:52:48.921Z,100.00
2022-09-07T03:54:52.618Z,100.00
2022-09-07T03:56:56.120Z,100.00
2022-09-07T03:58:59.812Z,100.00
2022-09-07T04:01:08.307Z,100.00
2022-09-07T04:03:12.978Z,100.00
2022-09-07T04:05:18.893Z,100.00
2022-09-07T04:07:23.328Z,100.00
2022-09-07T04:09:29.012Z,100.00
2022-09-07T04:11:34.004Z,100.00
2022-09-07T04:13:38.158Z,100.00
2022-09-07T04:15:44.496Z,100.00
2022-09-07T04:17:48.725Z,100.00
2022-09-07T04:19:53.356Z,100.00
2022-09-07T04:21:57.830Z,100.00
2022-09-07T04:24:01.858Z,100.00
2022-09-07T04:26:07.501Z,100.00
2022-09-07T04:28:12.312Z,100.00
2022-09-07T04:30:16.124Z,100.00
2022-09-07T04:32:20.382Z,100.00
2022-09-07T04:34:26.793Z,100.00
2022-09-07T04:36:30.512Z,100.00
2022-09-07T04:38:34.199Z,100.00
2022-09-07T04:40:38.708Z,100.00
2022-09-07T04:42:46.566Z,100.00
2022-09-07T04:44:51.200Z,100.00
2022-09-07T04:46:55.289Z,100.00
2022-09-07T04:49:02.957Z,100.00
2022-09-07T04:51:07.199Z,100.00
2022-09-07T04:53:11.556Z,100.00
2022-09-07T04:55:15.168Z,100.00
2022-09-07T04:57:21.809Z,100.00
2022-09-07T04:59:26.867Z,100.00
2022-09-07T05:01:30.925Z,100.00
2022-09-07T05:03:37.488Z,100.00
2022-09-07T05:05:41.766Z,100.00
2022-09-07T05:07:45.280Z,100.00
2022-09-07T05:09:49.104Z,100.00
2022-09-07T05:11:52.543Z,100.00
2022-09-07T05:13:57.774Z,100.00
2022-09-07T05:16:11.600Z,100.00
2022-09-07T05:18:16.036Z,100.00
2022-09-07T05:20:22.333Z,100.00
2022-09-07T05:22:26.973Z,100.00
2022-09-07T05:24:35.341Z,100.00
2022-09-07T05:26:40.586Z,100.00
2022-09-07T05:28:45.451Z,100.00
2022-09-07T05:33:15.359Z,100.00
2022-09-07T05:35:20.749Z,100.00
2022-09-07T05:37:24.345Z,100.00
2022-09-07T05:39:29.037Z,100.00
2022-09-07T05:41:33.283Z,100.00
2022-09-07T05:46:08.948Z,100.00
2022-09-07T05:48:16.673Z,100.00
2022-09-07T05:50:22.645Z,100.00
2022-09-07T05:52:26.713Z,100.00
2022-09-07T05:54:30.519Z,100.00
2022-09-07T05:56:36.334Z,100.00
2022-09-07T05:58:41.831Z,100.00
2022-09-07T06:00:45.739Z,100.00
2022-09-07T06:02:50.708Z,100.00
2022-09-07T06:04:55.883Z,100.00
2022-09-07T06:07:20.694Z,100.00
2022-09-07T06:09:28.415Z,100.00
2022-09-07T06:11:35.674Z,100.00
2022-09-07T06:13:40.222Z,100.00
2022-09-07T06:15:43.757Z,100.00
2022-09-07T06:17:48.624Z,100.00
2022-09-07T06:19:52.408Z,100.00
2022-09-07T06:21:58.121Z,100.00
2022-09-07T06:24:01.884Z,100.00
2022-09-07T06:26:06.196Z,100.00
2022-09-07T06:28:09.934Z,100.00
2022-09-07T06:30:14.432Z,100.00
2022-09-07T06:34:44.885Z,100.00
2022-09-07T06:36:48.994Z,100.00
2022-09-07T06:38:55.489Z,100.00
2022-09-07T06:43:27.473Z,100.00
2022-09-07T06:45:32.523Z,100.00
2022-09-07T06:47:36.036Z,100.00
2022-09-07T06:49:39.820Z,100.00
2022-09-07T06:51:44.438Z,100.00
2022-09-07T06:53:50.337Z,100.00
2022-09-07T06:55:56.521Z,100.00
2022-09-07T06:58:01.040Z,100.00
2022-09-07T07:00:06.042Z,100.00
2022-09-07T07:02:13.789Z,100.00
2022-09-07T07:04:18.414Z,100.00
2022-09-07T07:06:23.272Z,100.00
2022-09-07T07:08:28.624Z,100.00
2022-09-07T07:10:32.539Z,100.00
2022-09-07T07:14:44.767Z,100.00
2022-09-07T07:16:51.731Z,100.00
2022-09-07T07:18:59.402Z,100.00
2022-09-07T07:21:05.442Z,100.00
2022-09-07T07:23:10.989Z,100.00
2022-09-07T07:25:18.103Z,100.00
2022-09-07T07:27:22.741Z,100.00
2022-09-07T07:29:29.007Z,100.00
2022-09-07T07:31:36.877Z,100.00
2022-09-07T07:33:42.101Z,100.00
2022-09-07T07:35:47.383Z,100.00
2022-09-07T07:40:20.436Z,100.00
2022-09-07T07:42:28.321Z,100.00
2022-09-07T07:44:34.913Z,100.00
2022-09-07T07:46:39.077Z,100.00
2022-09-07T07:48:44.584Z,100.00
2022-09-07T07:51:02.649Z,100.00
2022-09-07T07:55:48.056Z,100.00
2022-09-07T07:57:51.766Z,100.00
2022-09-07T07:59:57.918Z,100.00
2022-09-07T08:02:05.266Z,100.00
2022-09-07T08:04:11.081Z,100.00
2022-09-07T08:06:16.560Z,100.00
2022-09-07T08:08:21.477Z,100.00
2022-09-07T08:10:27.240Z,100.00
2022-09-07T08:12:31.807Z,100.00
2022-09-07T08:14:36.827Z,100.00
2022-09-07T08:16:45.215Z,100.00
2022-09-07T08:18:49.200Z,100.00
2022-09-07T08:20:53.327Z,100.00
2022-09-07T08:22:57.246Z,100.00
2022-09-07T08:25:01.555Z,100.00
2022-09-07T08:27:07.213Z,100.00
2022-09-07T08:29:13.087Z,100.00
2022-09-07T08:31:21.790Z,100.00
2022-09-07T08:33:29.003Z,100.00
2022-09-07T08:35:32.625Z,100.00
2022-09-07T08:37:37.298Z,100.00
2022-09-07T08:39:41.930Z,100.00
2022-09-07T08:42:13.749Z,100.00
2022-09-07T08:44:24.899Z,100.00
2022-09-07T08:46:34.854Z,100.00
2022-09-07T08:48:43.244Z,100.00
2022-09-07T08:50:55.370Z,100.00
2022-09-07T08:53:05.380Z,100.00
2022-09-07T08:55:16.063Z,100.00
2022-09-07T08:57:28.524Z,100.00
2022-09-07T08:59:41.293Z,100.00
2022-09-07T09:02:27.144Z,100.00
2022-09-07T09:04:20.183Z,100.00
2022-09-07T09:06:33.414Z,100.00
2022-09-07T09:08:54.795Z,100.00
2022-09-07T09:11:08.183Z,100.00
2022-09-07T09:13:19.687Z,100.00
2022-09-07T09:15:31.188Z,100.00
2022-09-07T09:17:40.649Z,100.00
2022-09-07T09:19:59.427Z,100.00
2022-09-07T09:22:11.256Z,100.00
2022-09-07T09:24:19.387Z,100.00
2022-09-07T09:26:26.450Z,100.00
2022-09-07T09:28:32.419Z,100.00
2022-09-07T09:30:36.140Z,100.00
2022-09-07T09:32:41.839Z,100.00
2022-09-07T09:35:04.700Z,100.00
2022-09-07T09:37:13.727Z,100.00
2022-09-07T09:39:27.992Z,100.00
2022-09-07T09:41:38.512Z,100.00
2022-09-07T09:43:47.000Z,100.00
2022-09-07T09:48:22.222Z,99.11
2022-09-07T09:52:56.818Z,95.07
2022-09-07T10:00:27.996Z,95.84
2022-09-07T10:04:59.459Z,94.26
2022-09-07T10:07:19.705Z,94.55
2022-09-07T10:09:29.092Z,94.09
2022-09-07T10:14:22.295Z,95.38
2022-09-07T10:16:40.450Z,96.41
2022-09-07T10:18:56.882Z,95.56
2022-09-07T10:21:28.196Z,94.43
2022-09-07T10:23:33.143Z,93.11
2022-09-07T10:25:39.795Z,93.93
2022-09-07T10:27:47.147Z,93.43
2022-09-07T10:29:51.051Z,94.12
2022-09-07T10:32:12.974Z,94.27
2022-09-07T10:34:28.996Z,93.87
2022-09-07T10:36:38.177Z,93.10
2022-09-07T10:38:49.461Z,93.28
2022-09-07T10:41:00.019Z,92.90
2022-09-07T10:43:21.544Z,93.72
2022-09-07T10:45:36.797Z,92.76
2022-09-07T10:47:50.104Z,92.93
2022-09-07T10:52:30.479Z,92.79
2022-09-07T10:54:44.300Z,92.86
2022-09-07T10:56:59.525Z,92.71
2022-09-07T10:59:17.533Z,93.14
2022-09-07T11:01:28.683Z,93.46
2022-09-07T11:03:56.034Z,94.18
2022-09-07T11:06:12.492Z,94.91
2022-09-07T11:09:15.928Z,95.70
2022-09-07T11:11:10.247Z,95.85
2022-09-07T11:13:20.186Z,95.72
2022-09-07T11:15:29.012Z,94.75
2022-09-07T11:17:44.158Z,93.85
2022-09-07T11:19:53.017Z,94.76
2022-09-07T11:22:02.616Z,94.94
2022-09-07T11:24:10.355Z,95.45
2022-09-07T11:26:22.666Z,95.94
2022-09-07T11:28:30.951Z,96.42
2022-09-07T11:30:39.825Z,96.08
2022-09-07T11:32:52.853Z,96.32
2022-09-07T11:35:01.780Z,96.95
2022-09-07T11:37:12.615Z,97.74
2022-09-07T11:39:23.777Z,97.76
2022-09-07T11:41:32.732Z,97.69
2022-09-07T11:43:44.348Z,97.50
2022-09-07T11:45:53.956Z,97.25
2022-09-07T11:48:01.463Z,97.54
2022-09-07T11:50:05.857Z,98.27
2022-09-07T11:52:16.464Z,99.17
2022-09-07T11:54:41.050Z,99.78
2022-09-07T11:56:53.095Z,100.00
2022-09-07T11:59:22.572Z,100.00
2022-09-07T12:01:38.301Z,99.99
2022-09-07T12:04:17.748Z,100.00
2022-09-07T12:06:47.865Z,99.05
2022-09-07T12:09:07.097Z,99.70
2022-09-07T12:11:39.022Z,99.12
2022-09-07T12:14:08.665Z,98.58
2022-09-07T12:16:20.773Z,99.18
2022-09-07T12:18:43.424Z,99.00
2022-09-07T12:20:49.435Z,96.98
2022-09-07T12:23:05.279Z,95.41
2022-09-07T12:25:11.501Z,93.20
2022-09-07T12:27:41.277Z,92.74
2022-09-07T12:29:47.299Z,91.03
2022-09-07T12:32:52.779Z,87.83
2022-09-07T12:34:58.471Z,87.21
2022-09-07T12:37:05.354Z,85.74
2022-09-07T12:39:27.199Z,85.19
2022-09-07T12:42:31.988Z,84.73
2022-09-07T12:44:29.260Z,83.33
2022-09-07T12:46:56.376Z,81.72
2022-09-07T12:49:08.621Z,82.70
2022-09-07T12:51:59.607Z,80.68
2022-09-07T12:53:57.591Z,78.35
2022-09-07T12:56:26.935Z,78.78
2022-09-07T12:58:42.728Z,79.52
2022-09-07T13:00:58.342Z,79.56
2022-09-07T13:06:05.886Z,79.92
2022-09-07T13:08:40.467Z,80.54
2022-09-07T13:10:44.946Z,80.60
2022-09-07T13:12:56.789Z,80.52
2022-09-07T13:15:02.162Z,79.92
2022-09-07T13:17:44.825Z,80.89
2022-09-07T13:20:24.318Z,81.11
2022-09-07T13:22:58.666Z,79.49
2022-09-07T13:25:04.367Z,79.45
2022-09-07T13:27:30.710Z,78.98
2022-09-07T13:29:40.861Z,78.83
2022-09-07T13:31:53.777Z,79.00
2022-09-07T13:33:58.226Z,79.54
2022-09-07T13:36:06.443Z,79.82
2022-09-07T13:38:15.752Z,81.25
2022-09-07T13:40:23.489Z,81.89
2022-09-07T13:42:30.678Z,81.76
2022-09-07T13:44:35.739Z,82.53
2022-09-07T13:46:58.453Z,83.00
2022-09-07T13:49:07.892Z,83.22
2022-09-07T13:51:19.006Z,82.47
2022-09-07T13:53:35.505Z,82.16
2022-09-07T13:55:47.043Z,82.88
2022-09-07T13:58:04.213Z,83.11
2022-09-07T14:00:15.357Z,83.58
2022-09-07T14:02:25.006Z,83.61
2022-09-07T14:04:35.607Z,83.99
2022-09-07T14:06:40.591Z,83.88
2022-09-07T14:08:49.590Z,84.21
2022-09-07T14:10:53.113Z,84.24
2022-09-07T14:13:07.948Z,84.10
2022-09-07T14:15:21.306Z,84.43
2022-09-07T14:17:25.113Z,83.37
2022-09-07T14:19:38.123Z,82.86
2022-09-07T14:21:43.588Z,82.85
2022-09-07T14:23:51.621Z,83.09
2022-09-07T14:26:17.603Z,83.36
2022-09-07T14:28:33.902Z,83.35
2022-09-07T14:30:38.376Z,84.11
2022-09-07T14:32:42.818Z,85.23
2022-09-07T14:34:47.240Z,85.37
2022-09-07T14:36:54.374Z,85.48
2022-09-07T14:39:07.001Z,85.89
2022-09-07T14:41:14.888Z,86.23
2022-09-07T14:43:30.015Z,85.16
2022-09-07T14:45:37.546Z,85.48
2022-09-07T14:47:41.894Z,85.38
2022-09-07T14:49:58.802Z,86.79
2022-09-07T14:52:04.847Z,88.22
2022-09-07T14:54:10.740Z,89.57
2022-09-07T14:56:22.935Z,90.99
2022-09-07T14:58:26.683Z,90.83
2022-09-07T15:00:33.121Z,91.21
2022-09-07T15:02:38.338Z,91.80
2022-09-07T15:04:42.251Z,91.37
2022-09-07T15:07:04.331Z,91.32
2022-09-07T15:09:31.004Z,90.93
2022-09-07T15:11:39.196Z,90.96
2022-09-07T15:13:46.609Z,91.19
2022-09-07T15:15:58.726Z,90.61
2022-09-07T15:18:08.793Z,90.90
2022-09-07T15:20:41.587Z,90.73
2022-09-07T15:22:46.142Z,90.09
2022-09-07T15:24:52.241Z,89.32
2022-09-07T15:27:05.217Z,89.42
2022-09-07T15:29:10.955Z,89.03
2022-09-07T15:33:40.726Z,88.19
2022-09-07T15:35:44.736Z,88.37
2022-09-07T15:38:06.076Z,88.13
2022-09-07T15:40:20.594Z,88.16
2022-09-07T15:44:51.085Z,88.39
2022-09-07T15:49:21.042Z,89.19
2022-09-07T15:56:16.277Z,91.15
2022-09-07T15:58:19.900Z,91.28
2022-09-07T16:00:23.426Z,91.16
2022-09-07T16:04:51.907Z,90.78
2022-09-07T16:06:55.743Z,90.32
2022-09-07T16:08:59.261Z,90.22
2022-09-07T16:11:18.691Z,90.15
2022-09-07T16:13:24.657Z,90.05
2022-09-07T16:15:29.227Z,89.83
2022-09-07T16:17:36.558Z,90.03
2022-09-07T16:19:41.489Z,89.86
2022-09-07T16:21:57.469Z,90.10
2022-09-07T16:24:03.106Z,90.64
2022-09-07T16:26:09.773Z,91.28
2022-09-07T16:28:15.304Z,91.56
2022-09-07T16:30:19.054Z,91.48
2022-09-07T16:34:46.080Z,92.55
2022-09-07T16:36:50.026Z,91.69
2022-09-07T16:38:59.978Z,90.62
2022-09-07T16:41:04.327Z,90.77
2022-09-07T16:43:11.868Z,89.74
2022-09-07T16:47:41.366Z,88.77
2022-09-07T16:49:45.309Z,88.67
2022-09-07T16:51:49.930Z,88.41
2022-09-07T16:53:58.868Z,88.61
2022-09-07T16:56:05.754Z,88.11
2022-09-07T17:00:34.709Z,87.70
2022-09-07T17:02:38.427Z,86.20
2022-09-07T17:04:42.352Z,86.44
2022-09-07T17:06:46.331Z,86.79
2022-09-07T17:08:49.974Z,86.13
2022-09-07T17:11:02.359Z,85.80
2022-09-07T17:13:09.300Z,86.19
2022-09-07T17:15:15.032Z,86.79
2022-09-07T17:17:20.391Z,86.53
2022-09-07T17:19:31.620Z,86.84
2022-09-07T17:21:38.683Z,86.43
2022-09-07T17:23:49.439Z,86.01
2022-09-07T17:26:06.918Z,86.38
2022-09-07T17:28:11.133Z,86.73
2022-09-07T17:30:15.880Z,87.30
2022-09-07T17:32:25.389Z,87.67
2022-09-07T17:34:30.603Z,87.94
2022-09-07T17:36:34.687Z,88.21
2022-09-07T17:41:10.435Z,88.68
2022-09-07T17:45:37.793Z,89.02
2022-09-07T17:47:43.176Z,88.73
2022-09-07T17:49:46.878Z,88.53
2022-09-07T17:51:50.468Z,89.17
2022-09-07T17:53:58.771Z,89.91
2022-09-07T17:56:02.776Z,90.23
2022-09-07T17:58:06.456Z,91.45
2022-09-07T18:00:12.318Z,92.28
2022-09-07T18:02:16.245Z,92.56
2022-09-07T18:04:21.442Z,93.38
2022-09-07T18:06:25.966Z,93.49
2022-09-07T18:08:29.465Z,93.76
2022-09-07T18:12:58.162Z,93.89
2022-09-07T18:15:01.784Z,94.03
2022-09-07T18:17:06.563Z,94.37
2022-09-07T18:19:11.224Z,93.74
2022-09-07T18:21:18.882Z,94.08
2022-09-07T18:23:22.963Z,94.01
2022-09-07T18:25:26.862Z,94.37
2022-09-07T18:27:32.461Z,94.60
2022-09-07T18:29:36.023Z,94.77
2022-09-07T18:31:40.016Z,94.95
2022-09-07T18:33:43.822Z,95.10
2022-09-07T18:35:48.073Z,95.46
2022-09-07T18:37:54.427Z,95.27
2022-09-07T18:39:58.825Z,95.38
2022-09-07T18:42:02.410Z,95.59
2022-09-07T18:45:27.337Z,96.01
2022-09-07T18:46:30.582Z,96.50
2022-09-07T18:48:35.000Z,96.57
2022-09-07T18:50:39.132Z,97.13
2022-09-07T18:53:07.120Z,97.31
2022-09-07T18:55:10.254Z,97.50
2022-09-07T18:57:15.505Z,97.80
2022-09-07T18:59:19.716Z,97.96
2022-09-07T19:01:24.490Z,98.62
2022-09-07T19:03:29.059Z,98.71
2022-09-07T19:07:56.451Z,99.44
2022-09-07T19:10:00.404Z,99.46
2022-09-07T19:12:08.105Z,99.84
2022-09-07T19:14:12.361Z,99.67
2022-09-07T19:16:18.759Z,99.73
2022-09-07T19:18:22.692Z,100.00
2022-09-07T19:20:29.030Z,99.99
2022-09-07T19:22:32.723Z,100.00
2022-09-07T19:24:37.943Z,100.00
2022-09-07T19:26:45.012Z,100.00
2022-09-07T19:28:55.575Z,100.00
2022-09-07T19:31:05.153Z,100.00
2022-09-07T19:33:12.289Z,100.00
2022-09-07T19:35:18.402Z,100.00
2022-09-07T19:37:26.028Z,100.00
2022-09-07T19:39:31.536Z,100.00
2022-09-07T19:41:42.197Z,100.00
2022-09-07T19:43:48.402Z,100.00
2022-09-07T19:45:55.996Z,100.00
2022-09-07T19:48:00.280Z,100.00
2022-09-07T19:50:06.670Z,100.00
2022-09-07T19:52:13.427Z,100.00
2022-09-07T19:54:17.431Z,100.00
2022-09-07T19:56:22.683Z,100.00
2022-09-07T19:58:28.138Z,100.00
2022-09-07T20:00:35.380Z,100.00
2022-09-07T20:02:44.217Z,100.00
2022-09-07T20:04:53.566Z,100.00
2022-09-07T20:06:57.970Z,100.00
2022-09-07T20:09:04.810Z,100.00
2022-09-07T20:11:13.471Z,100.00
2022-09-07T20:13:18.349Z,100.00
2022-09-07T20:15:22.307Z,100.00
2022-09-07T20:17:31.838Z,100.00
2022-09-07T20:19:41.844Z,100.00
2022-09-07T20:21:46.866Z,100.00
2022-09-07T20:23:53.054Z,100.00
2022-09-07T20:26:01.699Z,100.00
2022-09-07T20:28:06.749Z,100.00
2022-09-07T20:30:15.350Z,100.00
2022-09-07T20:32:24.736Z,100.00
2022-09-07T20:34:32.244Z,100.00
2022-09-07T20:36:40.671Z,100.00
2022-09-07T20:38:48.091Z,100.00
2022-09-07T20:40:58.325Z,100.00
2022-09-07T20:43:03.247Z,100.00
2022-09-07T20:45:08.734Z,100.00
2022-09-07T20:47:14.093Z,100.00
2022-09-07T20:49:17.856Z,100.00
2022-09-07T20:51:23.070Z,100.00
2022-09-07T20:53:29.871Z,100.00
2022-09-07T20:55:34.405Z,100.00
2022-09-07T20:57:38.652Z,100.00
2022-09-07T20:59:44.914Z,100.00
2022-09-07T21:01:49.770Z,100.00
2022-09-07T21:03:56.524Z,100.00
2022-09-07T21:06:04.671Z,100.00
2022-09-07T21:08:08.808Z,100.00
2022-09-07T21:10:16.310Z,100.00
2022-09-07T21:12:21.319Z,100.00
2022-09-07T21:14:25.912Z,100.00
2022-09-07T21:16:31.569Z,100.00
2022-09-07T21:18:36.970Z,100.00
2022-09-07T21:20:41.848Z,100.00
2022-09-07T21:22:46.186Z,100.00
2022-09-07T21:24:51.231Z,100.00
2022-09-07T21:26:56.625Z,100.00
2022-09-07T21:29:03.137Z,100.00
2022-09-07T21:31:09.210Z,100.00
2022-09-07T21:33:13.253Z,100.00
2022-09-07T21:35:18.180Z,100.00
2022-09-07T21:37:23.690Z,100.00
2022-09-07T21:39:28.281Z,100.00
2022-09-07T21:41:33.989Z,100.00
2022-09-07T21:43:39.553Z,100.00
2022-09-07T21:45:43.699Z,100.00
2022-09-07T21:47:47.450Z,100.00
2022-09-07T21:49:52.880Z,100.00
2022-09-07T21:51:56.440Z,100.00
2022-09-07T21:54:01.429Z,100.00
2022-09-07T21:56:07.378Z,100.00
2022-09-07T21:58:10.931Z,100.00
2022-09-07T22:00:16.521Z,100.00
2022-09-07T22:02:20.062Z,100.00
2022-09-07T22:04:23.520Z,100.00
2022-09-07T22:06:28.493Z,100.00
2022-09-07T22:08:32.022Z,100.00
2022-09-07T22:10:35.472Z,100.00
2022-09-07T22:12:39.013Z,100.00
2022-09-07T22:14:42.866Z,100.00
2022-09-07T22:16:47.909Z,100.00
2022-09-07T22:18:51.817Z,100.00
2022-09-07T22:21:03.318Z,100.00
2022-09-07T22:23:07.529Z,100.00
2022-09-07T22:25:11.210Z,100.00
2022-09-07T22:27:14.780Z,100.00
2022-09-07T22:29:18.599Z,100.00
2022-09-07T22:31:24.842Z,100.00
2022-09-07T22:33:33.403Z,100.00
2022-09-07T22:35:37.144Z,100.00
2022-09-07T22:37:40.520Z,100.00
2022-09-07T22:39:44.713Z,100.00
2022-09-07T22:41:48.947Z,100.00
2022-09-07T22:43:52.831Z,100.00
2022-09-07T22:45:56.678Z,100.00
2022-09-07T22:48:00.233Z,100.00
2022-09-07T22:50:05.802Z,100.00
2022-09-07T22:52:09.413Z,100.00
2022-09-07T22:54:16.466Z,100.00
2022-09-07T22:56:21.910Z,100.00
2022-09-07T22:58:29.176Z,100.00
2022-09-07T23:00:33.734Z,100.00
2022-09-07T23:02:38.530Z,100.00
2022-09-07T23:04:44.256Z,100.00
2022-09-07T23:06:49.386Z,100.00
2022-09-07T23:08:54.488Z,100.00
2022-09-07T23:11:05.324Z,100.00
2022-09-07T23:13:14.933Z,100.00
2022-09-07T23:15:20.757Z,100.00
2022-09-07T23:17:24.912Z,100.00
2022-09-07T23:19:28.667Z,100.00
2022-09-07T23:21:32.542Z,100.00
2022-09-07T23:23:38.737Z,100.00
2022-09-07T23:25:44.713Z,100.00
2022-09-07T23:27:48.218Z,100.00
2022-09-07T23:29:52.164Z,100.00
2022-09-07T23:31:55.830Z,100.00
2022-09-07T23:34:00.641Z,100.00
2022-09-07T23:36:07.551Z,100.00
2022-09-07T23:38:11.519Z,100.00
2022-09-07T23:40:16.857Z,100.00
2022-09-07T23:42:21.125Z,100.00
2022-09-07T23:44:24.732Z,100.00
2022-09-07T23:46:28.399Z,100.00
2022-09-07T23:48:32.032Z,100.00
2022-09-07T23:50:35.743Z,100.00
2022-09-07T23:52:39.151Z,100.00
2022-09-07T23:54:43.063Z,100.00
2022-09-07T23:56:48.286Z,100.00
2022-09-07T23:58:52.262Z,100.00
